WEATHER DATA

YESTERDAY
Time Temp. Dewp. Hum. Wind dir Wind speed Wind gust Bar.
00:06 13.2 6.5 64 324 1.1 2.2 1017.3
00:26 13.1 6.5 64 318 1.1 2.5 1017.5
00:37 13 6.4 64 315 1.1 3.1 1017.8
00:46 13 6.4 64 317 1.1 2.2 1017.8
00:56 12.9 6 63 344 0.8 2.2 1017.8
01:07 12.7 5.8 63 6 0.8 1.7 1018
01:17 12.5 5.7 63 337 0.8 1.7 1018.2
01:27 12.4 5.6 63 343 0.8 2.8 1018.4
01:37 12.3 5.5 63 339 0.8 1.4 1018.2
01:48 12.2 5.4 63 11 0.8 1.7 1018.2
01:58 12.2 5.4 63 356 0.8 2.2 1017.9
02:07 12.2 5.4 63 338 0.8 2.2 1017.9
02:18 12.1 5.3 63 351 0.8 3.1 1017.7
02:28 12.1 5.3 63 334 1.1 2.5 1017.8
02:38 12.1 5.3 63 338 1.1 3.1 1017.7
02:48 12.2 5.4 63 336 0.8 2.8 1017.5
02:59 12.3 5.5 63 282 1.4 5.3 1017.5
03:09 12.2 5.4 63 343 0.8 2.2 1017.5
03:19 12.1 5.3 63 307 1.4 3.6 1017.5
03:29 11.9 5.1 63 321 1.1 2.8 1017.2
03:40 11.7 4.9 63 309 1.1 4.2 1017.5
03:49 11.6 4.8 63 330 1.1 4.2 1017.4
03:59 11.4 4.6 63 320 1.1 3.9 1017.2
04:09 11.3 4.5 63 317 1.1 5 1017.2
04:19 11.2 4.4 63 287 1.1 3.1 1017.3
04:29 11.1 4.3 63 306 1.4 4.2 1017.6
04:39 10.9 4.1 63 292 1.7 8.1 1017.7
04:50 10.7 4 63 285 1.4 4.2 1017.9
04:59 10.5 3.8 63 297 1.7 5 1017.6
05:09 10.4 3.7 63 292 1.7 5.3 1017.4
05:20 10.2 3.5 63 289 1.4 6.1 1017.5
05:30 10.2 3.5 63 291 1.4 3.9 1017.3
05:39 10.2 3.5 63 279 1.4 8.6 1017.5
05:49 10.1 3.4 63 277 1.7 6.9 1017.1
05:59 10 3.3 63 291 1.7 5.6 1016.9
06:09 9.9 3.2 63 277 1.4 6.9 1016.9
06:19 9.9 3.2 63 288 1.7 4.7 1017.2
06:30 9.8 3.1 63 295 1.7 5.3 1017.5
06:40 9.7 3 63 290 2.2 8.1 1017.3
06:50 9.6 2.9 63 298 1.7 5.3 1017.1
07:00 9.5 2.8 63 270 1.7 8.1 1017
07:09 9.5 2.8 63 270 1.7 9.2 1017.1
07:19 9.4 2.7 63 285 1.4 4.2 1017.3
07:30 9.4 2.7 63 281 2.2 7.5 1017.1
07:40 9.4 2.7 63 302 1.4 5.6 1017.2
07:50 9.5 2.8 63 279 2.2 6.4 1017.2
08:00 9.5 2.8 63 288 2.2 5.6 1017
08:10 9.5 2.8 63 278 2.5 9.2 1016.8
08:20 9.6 2.9 63 294 2.2 6.7 1016.8
08:30 9.6 2.9 63 270 2.2 11.9 1017.1
08:39 9.7 3 63 288 2.2 7.5 1016.7
08:50 9.6 2.9 63 270 1.7 6.1 1016.6
09:02 9.8 3.1 63 291 1.7 8.6 1016.3
09:12 10 3.3 63 323 2.2 6.7 1016.2
09:22 10.2 3.5 63 300 2.2 6.9 1016.3
09:36 10.3 3.6 63 293 2.8 13.1 1016.2
09:45 10.6 3.9 63 290 2.2 9.2 1016.3
09:56 10.9 4.1 63 291 1.7 9.2 1016.5
10:06 11.2 4.4 63 287 1.7 8.9 1016.5
10:11 11.3 4.5 63 299 1.7 8.1 1016.4
10:26 12 5.2 63 297 2.5 11.4 1016
10:36 12.4 5.6 63 286 2.2 6.1 1015.6
10:38 12.4 5.6 63 287 2.8 11.4 1015.6
10:49 12.6 5.8 63 294 2.2 8.9 1015.4
10:59 12.7 5.8 63 279 2.2 7.5 1015.4
11:08 12.8 5.9 63 309 1.7 6.7 1015.2
11:18 13 6.1 63 281 2.8 7.5 1015
11:33 13.4 6.5 63 284 2.2 7.8 1014.9
11:43 13.7 6.8 63 302 2.2 6.7 1014.7
11:53 14.1 7.2 63 311 1.7 6.1 1014.4
12:03 14.3 7.4 63 297 2.2 6.4 1014.1
12:13 14.3 7.4 63 296 2.5 9.4 1013.8
12:23 14.2 7.3 63 288 2.8 8.6 1013.5
12:33 13.9 7 63 299 2.5 7.5 1013.4
12:43 13.6 6.7 63 286 2.2 6.4 1013
12:53 13.5 6.6 63 291 1.7 6.1 1013.1
13:01 13.3 6.4 63 297 2.2 8.6 1012.7
13:11 13.2 6.3 63 283 1.1 3.6 1012.1
13:21 13.3 6.4 63 263 1.7 6.9 1011.7
13:35 13.4 6.5 63 297 1.7 10.6 1011.4
13:45 13.3 6.4 63 292 2.2 9.2 1011
13:53 13.3 6.4 63 286 1.7 8.6 1010.8
14:06 13.5 6.6 63 295 1.7 10.3 1010.4
14:16 13.7 6.8 63 282 1.7 6.7 1009.9
14:26 13.8 6.9 63 291 2.2 6.9 1009.8
14:36 13.9 7 63 270 2.5 7.8 1009.4
14:46 14 7.1 63 286 1.4 5.3 1009.2
14:56 14.2 7 62 284 2.2 10 1009
15:02 14.3 7.1 62 296 1.7 8.9 1009
15:12 14.4 7.2 62 289 2.2 8.1 1008.8
15:23 14.4 7.2 62 292 1.4 4.2 1008.6
15:32 14.5 7.3 62 270 1.7 5.3 1008.5
15:42 14.5 7.3 62 270 1.7 5 1008.3
15:53 14.5 7.3 62 295 1.4 4.2 1008.2
16:03 14.6 7.4 62 300 1.7 5.3 1008.1
16:12 14.6 7.4 62 297 1.4 5 1007.7
16:23 14.6 7.4 62 304 1.7 5 1007.7
16:33 14.5 7.3 62 291 2.2 9.4 1007.3
16:43 14.5 7.3 62 287 1.4 6.1 1007.2
16:53 14.6 7.4 62 286 1.4 4.2 1006.9
17:03 14.7 7.5 62 292 1.7 5.6 1006.5
17:13 14.7 7.5 62 304 2.2 8.1 1006.6
17:23 14.8 7.6 62 285 1.4 4.7 1006.5
17:33 14.8 7.6 62 270 1.7 6.7 1006.6
17:41 14.8 7.6 62 283 2.5 11.4 1006.2
17:51 14.8 7.6 62 303 2.2 6.4 1005.8
18:02 14.9 7.7 62 278 2.5 6.7 1006.1
18:12 14.9 7.7 62 289 1.7 6.9 1005.9
18:23 15 7.8 62 296 2.2 9.2 1005.7
18:34 15 7.8 62 286 1.7 7.8 1005.8
18:43 15 7.8 62 292 1.4 7.5 1005.6
18:56 15.2 8 62 289 2.2 8.1 1005.5
19:04 15.3 8.1 62 315 1.7 9.2 1005.1
19:14 15.5 8.3 62 315 2.2 5 1004.6
19:25 15.6 8.4 62 294 1.7 4.7 1004.9
19:34 15.8 8.5 62 327 1.7 5 1004.8
19:44 15.9 8.6 62 299 1.7 5.3 1004.6
19:55 16.1 8.8 62 296 1.7 5 1005
20:05 16.3 9 62 324 1.4 3.6 1004.8
20:07 16.3 9 62 313 1.7 6.7 1004.8
20:18 16.5 9.2 62 309 1.4 3.9 1004.7
20:36 16.8 9.5 62 303 2.2 9.4 1004.6
20:47 16.9 9.6 62 311 1.7 6.1 1004.8
20:56 17 9.7 62 323 1.7 4.2 1004.8
20:58 17 9.7 62 304 1.7 11.4 1004.8
21:08 17.1 9.5 61 300 1.7 4.7 1004.7
21:18 17.1 9.5 61 322 1.4 4.7 1004.6
21:29 17.1 9.5 61 300 2.5 7.8 1004.7
21:38 17.2 9.6 61 292 2.2 6.7 1004.7
21:48 17.1 9.5 61 319 1.4 6.1 1004.8
21:59 17.2 9.6 61 322 2.2 5.6 1004.9
22:09 17.2 9.6 61 301 2.2 8.1 1005.1
22:18 17.2 9.6 61 315 1.4 5 1005
22:28 17.2 9.6 61 284 1.7 5 1004.9
22:46 17.1 9.5 61 290 1.7 8.1 1005.2
22:56 17.1 9.5 61 307 2.2 5.3 1005.2
22:58 17 9.4 61 285 2.5 8.6 1004.8
23:08 16.9 9.3 61 333 2.2 5 1005.2
23:19 16.8 9.2 61 315 1.7 5.6 1005.2
23:29 16.6 9.1 61 284 2.2 5.6 1005.2
23:39 16.5 9 61 304 1.7 5.6 1005.3
23:49 16.4 8.9 61 300 2.2 7.5 1005.3

DAY STATISTIC

2020-02-23
TEMPERATURE
AVERAGE
13.3
HIGH
17.2
21:38
LOW
9.4
07:19
PRESSURE
AVERAGE
1012.1
HIGH
1018.4
01:27
LOW
1004.6
19:14
DEWPOINT
AVERAGE
6.3
HIGH
9.7
20:56
LOW
2.7
07:19
HUMIDITY
AVERAGE
63
HIGH
64
00:06
LOW
61
21:08
WIND SPEED
AVERAGE
1.7
HIGH
2.8
09:36
WIND GUST
AVERAGE
6.2
HIGH
13.1
09:36
WIND DIRECTION
PREVAILING
NW
47.2%
N
7.0
NE
0.0
E
0.0
SE
0.0
S
0.0
SW
0.0
W
45.8
NW
47.2
TEMPERATURE (°C)
LOW
9.4
HIGH
17.2
AVERAGE
13.3
PRESSURE (hpa)
LOW
1004.6
HIGH
1018.4
AVERAGE
1012.1
DEVICE